Strona główna
METAR-TAF:

METAR-TAF

Lotnisko :

Rapid City Regional Airport

Rapid City, Dakota Południowa, Stany Zjednoczone

Szerokość geograficzna: 44-02-44N, Długość geograficzna: 103-03-14W, wysokość: 976 m

Aktualna obserwacja pogody

Raport powstał 53 minut temu, godzina 01:52 UTC
Wiatr 5 kt od południowo-południowy wschód
Temperatura 17°C
Wilgotność 77%
Ciśnienie 1018 hPa
Widzialność: 16.1 km
bezchmurnie

METAR: KRAP 180152Z 15005KT 10SM CLR 17/13 A3006 RMK AO2 SLP172 T01670128

czas: 20:45 (02:45 UTC)

Prognoza

Raport powstał 3 godziny i 22 minut temu, godzina 23:23 UTC
Prognoza ważna od 18 godzina 00 UTC do 18 godzina 24 UTC
Wiatr 8 kt od południowo-południowy wschód
Widzialność: 10 km
Rozproszone chmury na wysokości 3000 ft
Przerywane chmury na wysokości 10000 ft
Od 18 godzina 1400 UTC
Wiatr 8 kt od południowo-południowy wschód
Widzialność: 10 km
Rozproszone chmury na wysokości 1500 ft
Przerywane chmury na wysokości 10000 ft

TAF: KRAP 172323Z 1800/1824 15008KT P6SM SCT030 BKN100 FM181400 15008KT P6SM SCT015 BKN100

Obserwacja i prognoza pogody dla ponad 4000 lotnisk (raport METAR i TAF).

Dostępne stacje oznaczono żółtymi i czerwonymi punktami na mapie.

Najedź kursorem aby zobaczyć nazwę stacji.

Kliknij aby zobaczyć obserwacje i prognozy pogody.

Aby zmienić mapę: kliknij na zielony przycisk z czarnym krzyżykiem, aby powiększyć; na zielony przycisk z myślnikiem, aby pomniejszyć; na zielone strzałki, aby przejść do map sąsiednich.


METAR-TAF: